createdAt,value
2023-02-23T00:01:52.135Z,4.40
2023-02-23T00:04:18.871Z,4.10
2023-02-23T00:06:45.752Z,4.15
2023-02-23T00:09:23.029Z,4.20
2023-02-23T00:11:55.471Z,4.25
2023-02-23T00:14:31.299Z,4.68
2023-02-23T00:16:59.922Z,4.53
2023-02-23T00:19:26.846Z,4.60
2023-02-23T00:21:54.398Z,3.83
2023-02-23T00:24:21.415Z,4.03
2023-02-23T00:26:51.181Z,4.22
2023-02-23T00:29:20.703Z,4.70
2023-02-23T00:34:16.650Z,4.07
2023-02-23T00:36:43.411Z,4.32
2023-02-23T00:39:21.818Z,4.38
2023-02-23T00:41:49.889Z,5.13
2023-02-23T00:44:16.941Z,4.63
2023-02-23T00:46:45.317Z,4.50
2023-02-23T00:49:13.299Z,4.40
2023-02-23T00:51:41.408Z,4.53
2023-02-23T00:54:10.442Z,4.65
2023-02-23T00:56:39.086Z,4.80
2023-02-23T00:59:06.854Z,4.47
2023-02-23T01:01:34.036Z,4.65
2023-02-23T01:04:02.065Z,4.93
2023-02-23T01:06:30.849Z,4.63
2023-02-23T01:08:57.947Z,4.82
2023-02-23T01:11:31.165Z,4.85
2023-02-23T01:13:59.610Z,4.50
2023-02-23T01:16:29.356Z,4.55
2023-02-23T01:18:58.871Z,4.53
2023-02-23T01:23:55.075Z,4.72
2023-02-23T01:26:25.206Z,4.32
2023-02-23T01:29:00.731Z,4.93
2023-02-23T01:31:29.194Z,4.60
2023-02-23T01:33:58.871Z,4.70
2023-02-23T01:36:26.644Z,5.35
2023-02-23T01:38:57.067Z,5.13
2023-02-23T01:41:25.014Z,4.65
2023-02-23T01:44:13.721Z,4.80
2023-02-23T01:46:43.709Z,4.28
2023-02-23T01:49:25.703Z,4.82
2023-02-23T01:51:57.832Z,4.65
2023-02-23T01:54:33.631Z,4.80
2023-02-23T01:57:03.162Z,5.10
2023-02-23T01:59:39.182Z,4.90
2023-02-23T02:02:06.037Z,4.63
2023-02-23T02:04:43.991Z,4.68
2023-02-23T02:07:24.981Z,5.10
2023-02-23T02:10:17.601Z,4.72
2023-02-23T02:12:46.698Z,5.47
2023-02-23T02:15:20.156Z,5.15
2023-02-23T02:17:53.484Z,4.60
2023-02-23T02:20:42.967Z,4.97
2023-02-23T02:23:27.265Z,4.85
2023-02-23T02:26:09.926Z,5.07
2023-02-23T02:28:42.606Z,5.28
2023-02-23T02:31:19.809Z,4.95
2023-02-23T02:34:11.923Z,4.80
2023-02-23T02:37:17.130Z,5.18
2023-02-23T02:39:46.713Z,5.18
2023-02-23T02:42:21.897Z,5.13
2023-02-23T02:45:14.310Z,5.28
2023-02-23T02:48:03.621Z,4.97
2023-02-23T02:53:41.769Z,5.07
2023-02-23T02:56:11.279Z,5.10
2023-02-23T03:01:30.950Z,5.05
2023-02-23T03:04:18.399Z,4.95
2023-02-23T03:07:18.251Z,5.28
2023-02-23T03:10:21.418Z,5.03
2023-02-23T03:13:24.698Z,5.20
2023-02-23T03:16:30.495Z,4.90
2023-02-23T03:19:32.066Z,5.32
2023-02-23T03:22:32.426Z,5.03
2023-02-23T03:25:18.354Z,5.47
2023-02-23T03:28:16.219Z,5.00
2023-02-23T03:31:31.728Z,5.53
2023-02-23T03:34:33.548Z,5.15
2023-02-23T03:37:32.615Z,5.22
2023-02-23T03:43:30.033Z,5.47
2023-02-23T03:46:17.147Z,5.20
2023-02-23T03:49:05.668Z,5.25
2023-02-23T03:51:55.522Z,5.13
2023-02-23T03:54:49.337Z,5.60
2023-02-23T03:57:39.202Z,5.80
2023-02-23T04:00:30.120Z,5.70
2023-02-23T04:03:18.338Z,5.72
2023-02-23T04:06:04.061Z,6.13
2023-02-23T04:08:54.888Z,5.78
2023-02-23T04:11:49.154Z,5.80
2023-02-23T04:14:23.636Z,5.78
2023-02-23T04:16:50.709Z,5.55
2023-02-23T04:19:17.423Z,6.10
2023-02-23T04:21:44.307Z,5.80
2023-02-23T04:24:11.485Z,5.70
2023-02-23T04:26:38.367Z,6.10
2023-02-23T04:29:05.137Z,5.75
2023-02-23T04:31:31.812Z,5.40
2023-02-23T04:33:58.505Z,5.22
2023-02-23T04:36:26.812Z,5.95
2023-02-23T04:38:53.446Z,5.57
2023-02-23T04:41:20.371Z,4.95
2023-02-23T04:43:47.257Z,5.43
2023-02-23T04:46:14.092Z,5.00
2023-02-23T04:48:40.827Z,5.35
2023-02-23T04:51:07.839Z,5.57
2023-02-23T04:53:34.592Z,5.10
2023-02-23T04:56:01.289Z,5.53
2023-02-23T04:58:28.489Z,5.10
2023-02-23T05:00:55.122Z,5.43
2023-02-23T05:03:21.822Z,5.70
2023-02-23T05:05:48.465Z,5.30
2023-02-23T05:08:15.156Z,5.40
2023-02-23T05:10:41.757Z,5.35
2023-02-23T05:13:08.440Z,5.38
2023-02-23T05:15:35.107Z,5.20
2023-02-23T05:18:01.824Z,5.82
2023-02-23T05:20:28.623Z,5.18
2023-02-23T05:22:55.344Z,5.68
2023-02-23T05:25:21.984Z,5.40
2023-02-23T05:27:48.665Z,5.18
2023-02-23T05:30:15.530Z,5.65
2023-02-23T05:32:42.313Z,4.95
2023-02-23T05:35:09.552Z,5.30
2023-02-23T05:37:36.393Z,5.28
2023-02-23T05:40:03.377Z,5.65
2023-02-23T05:42:30.134Z,4.90
2023-02-23T05:44:56.821Z,5.78
2023-02-23T05:47:23.570Z,5.28
2023-02-23T05:49:50.225Z,4.93
2023-02-23T05:52:16.891Z,5.35
2023-02-23T05:54:43.575Z,5.25
2023-02-23T05:57:10.218Z,5.40
2023-02-23T05:59:36.904Z,5.05
2023-02-23T06:02:05.992Z,5.15
2023-02-23T06:04:33.764Z,5.40
2023-02-23T06:07:00.487Z,5.03
2023-02-23T06:09:27.430Z,5.20
2023-02-23T06:11:54.094Z,5.57
2023-02-23T06:14:20.988Z,5.72
2023-02-23T06:16:48.876Z,5.25
2023-02-23T06:19:15.745Z,5.22
2023-02-23T06:21:42.474Z,5.68
2023-02-23T06:24:09.532Z,5.32
2023-02-23T06:26:36.372Z,5.32
2023-02-23T06:29:03.078Z,5.22
2023-02-23T06:31:30.669Z,4.65
2023-02-23T06:33:57.353Z,5.47
2023-02-23T06:36:24.013Z,4.90
2023-02-23T06:38:50.626Z,5.10
2023-02-23T06:41:18.207Z,5.55
2023-02-23T06:43:45.495Z,5.68
2023-02-23T06:46:12.421Z,4.95
2023-02-23T06:48:39.417Z,5.18
2023-02-23T06:51:06.275Z,4.63
2023-02-23T06:53:33.738Z,5.60
2023-02-23T06:56:00.516Z,5.38
2023-02-23T06:58:28.369Z,5.50
2023-02-23T07:00:59.412Z,5.32
2023-02-23T07:03:26.413Z,4.85
2023-02-23T07:05:54.286Z,5.20
2023-02-23T07:08:21.011Z,5.47
2023-02-23T07:10:47.721Z,5.63
2023-02-23T07:13:14.595Z,4.85
2023-02-23T07:15:42.319Z,4.90
2023-02-23T07:18:08.996Z,5.00
2023-02-23T07:20:35.732Z,4.90
2023-02-23T07:23:02.500Z,5.38
2023-02-23T07:25:30.029Z,5.18
2023-02-23T07:27:56.763Z,5.10
2023-02-23T07:30:26.331Z,4.93
2023-02-23T07:32:54.093Z,4.65
2023-02-23T07:35:21.034Z,5.28
2023-02-23T07:37:48.019Z,4.68
2023-02-23T07:40:15.010Z,5.43
2023-02-23T07:42:41.904Z,4.82
2023-02-23T07:45:10.332Z,4.95
2023-02-23T07:47:37.569Z,4.97
2023-02-23T07:50:09.805Z,5.40
2023-02-23T07:52:44.546Z,4.93
2023-02-23T07:55:11.908Z,5.13
2023-02-23T07:57:39.528Z,5.00
2023-02-23T08:00:07.258Z,4.78
2023-02-23T08:02:39.896Z,5.65
2023-02-23T08:05:07.110Z,5.03
2023-02-23T08:07:34.001Z,5.25
2023-02-23T08:10:00.820Z,5.40
2023-02-23T08:12:27.469Z,5.60
2023-02-23T08:14:54.380Z,5.32
2023-02-23T08:17:21.434Z,5.57
2023-02-23T08:19:48.780Z,5.30
2023-02-23T08:22:15.754Z,4.97
2023-02-23T08:24:42.494Z,5.13
2023-02-23T08:27:09.354Z,5.18
2023-02-23T08:29:36.051Z,4.70
2023-02-23T08:32:04.165Z,5.40
2023-02-23T08:34:31.452Z,5.10
2023-02-23T08:36:58.122Z,4.88
2023-02-23T08:39:24.919Z,5.53
2023-02-23T08:41:52.562Z,5.35
2023-02-23T08:44:19.439Z,5.43
2023-02-23T08:46:46.378Z,5.30
2023-02-23T08:49:13.215Z,5.43
2023-02-23T08:51:40.911Z,5.38
2023-02-23T08:54:14.260Z,5.30
2023-02-23T08:56:42.151Z,5.40
2023-02-23T08:59:09.696Z,5.50
2023-02-23T09:01:37.183Z,5.35
2023-02-23T09:04:05.840Z,4.45
2023-02-23T09:06:35.219Z,4.78
2023-02-23T09:11:28.602Z,5.07
2023-02-23T09:13:55.489Z,5.18
2023-02-23T09:16:22.187Z,5.30
2023-02-23T09:18:49.092Z,5.20
2023-02-23T09:21:22.396Z,5.40
2023-02-23T09:23:51.302Z,5.25
2023-02-23T09:26:19.551Z,5.13
2023-02-23T09:28:46.877Z,4.82
2023-02-23T09:31:17.142Z,4.90
2023-02-23T09:33:44.099Z,5.60
2023-02-23T09:36:16.603Z,5.10
2023-02-23T09:38:44.875Z,5.10
2023-02-23T09:41:30.211Z,4.82
2023-02-23T09:44:15.733Z,4.63
2023-02-23T09:47:10.261Z,5.05
2023-02-23T09:49:43.143Z,4.68
2023-02-23T09:52:20.147Z,5.60
2023-02-23T09:54:47.548Z,5.78
2023-02-23T09:57:24.289Z,5.45
2023-02-23T09:59:51.029Z,6.05
2023-02-23T10:02:50.117Z,5.40
2023-02-23T10:05:17.147Z,5.20
2023-02-23T10:07:52.753Z,5.40
2023-02-23T10:10:25.296Z,6.13
2023-02-23T10:13:32.696Z,5.38
2023-02-23T10:16:30.593Z,5.60
2023-02-23T10:19:15.304Z,5.85
2023-02-23T10:21:46.610Z,5.25
2023-02-23T10:24:20.894Z,5.50
2023-02-23T10:27:02.630Z,5.90
2023-02-23T10:29:34.637Z,5.60
2023-02-23T10:32:08.142Z,5.93
2023-02-23T10:34:36.808Z,5.65
2023-02-23T10:37:06.695Z,6.20
2023-02-23T10:39:34.552Z,6.00
2023-02-23T10:42:05.972Z,5.90
2023-02-23T10:44:32.976Z,6.20
2023-02-23T10:47:11.460Z,5.85
2023-02-23T10:49:53.307Z,5.78
2023-02-23T10:52:45.769Z,5.82
2023-02-23T10:55:24.638Z,6.05
2023-02-23T10:58:16.940Z,5.32
2023-02-23T11:01:04.527Z,5.40
2023-02-23T11:03:57.633Z,6.05
2023-02-23T11:06:36.247Z,5.55
2023-02-23T11:09:24.778Z,5.68
2023-02-23T11:12:21.838Z,6.03
2023-02-23T11:14:54.205Z,6.38
2023-02-23T11:17:34.187Z,5.78
2023-02-23T11:20:19.008Z,6.30
2023-02-23T11:22:46.102Z,6.38
2023-02-23T11:25:18.959Z,6.57
2023-02-23T11:27:53.121Z,6.10
2023-02-23T11:30:24.561Z,6.20
2023-02-23T11:33:09.526Z,6.60
2023-02-23T11:35:37.957Z,6.13
2023-02-23T11:38:15.393Z,5.93
2023-02-23T11:40:42.336Z,6.15
2023-02-23T11:43:16.556Z,6.38
2023-02-23T11:45:52.008Z,6.47
2023-02-23T11:48:27.667Z,6.32
2023-02-23T11:50:56.012Z,6.13
2023-02-23T11:53:31.605Z,6.13
2023-02-23T11:56:08.358Z,6.05
2023-02-23T11:58:45.281Z,6.53
2023-02-23T12:01:20.987Z,6.65
2023-02-23T12:03:57.113Z,6.10
2023-02-23T12:06:37.702Z,6.38
2023-02-23T12:09:26.524Z,5.93
2023-02-23T12:12:16.317Z,6.68
2023-02-23T12:14:52.052Z,6.45
2023-02-23T12:17:29.582Z,6.43
2023-02-23T12:20:04.373Z,6.50
2023-02-23T12:22:46.550Z,6.45
2023-02-23T12:25:33.109Z,6.38
2023-02-23T12:28:18.236Z,6.95
2023-02-23T12:30:50.562Z,6.55
2023-02-23T12:33:48.605Z,6.00
2023-02-23T12:36:45.550Z,6.47
2023-02-23T12:39:25.339Z,6.45
2023-02-23T12:42:00.101Z,6.32
2023-02-23T12:44:38.758Z,6.45
2023-02-23T12:47:20.370Z,6.30
2023-02-23T12:50:07.356Z,6.70
2023-02-23T12:52:37.196Z,6.47
2023-02-23T12:55:09.651Z,6.63
2023-02-23T12:57:58.663Z,6.53
2023-02-23T13:00:48.047Z,6.30
2023-02-23T13:03:24.952Z,6.35
2023-02-23T13:06:11.662Z,6.32
2023-02-23T13:09:13.137Z,6.25
2023-02-23T13:11:47.192Z,6.47
2023-02-23T13:14:50.963Z,6.50
2023-02-23T13:17:37.983Z,6.63
2023-02-23T13:20:31.032Z,6.45
2023-02-23T13:23:00.564Z,5.65
2023-02-23T13:28:02.043Z,5.88
2023-02-23T13:30:37.063Z,6.40
2023-02-23T13:33:15.912Z,6.15
2023-02-23T13:35:43.108Z,6.13
2023-02-23T13:38:39.214Z,6.45
2023-02-23T13:41:33.427Z,6.53
2023-02-23T13:44:28.987Z,6.60
2023-02-23T13:47:27.971Z,6.35
2023-02-23T13:50:17.726Z,6.88
2023-02-23T13:52:47.050Z,6.65
2023-02-23T13:55:26.185Z,6.03
2023-02-23T13:57:54.006Z,6.13
2023-02-23T14:00:22.536Z,6.30
2023-02-23T14:02:50.807Z,5.60
2023-02-23T14:05:25.006Z,5.50
2023-02-23T14:07:59.036Z,6.22
2023-02-23T14:10:29.532Z,6.40
2023-02-23T14:13:14.596Z,6.45
2023-02-23T14:15:44.373Z,5.57
2023-02-23T14:18:20.977Z,5.68
2023-02-23T14:21:05.318Z,6.22
2023-02-23T14:23:54.147Z,6.22
2023-02-23T14:26:29.744Z,6.20
2023-02-23T14:29:27.955Z,6.07
2023-02-23T14:31:54.882Z,5.50
2023-02-23T14:34:25.392Z,5.88
2023-02-23T14:36:56.548Z,5.50
2023-02-23T14:39:27.539Z,6.05
2023-02-23T14:41:59.902Z,6.07
2023-02-23T14:44:32.330Z,5.32
2023-02-23T14:47:14.164Z,5.45
2023-02-23T14:49:49.196Z,5.78
2023-02-23T14:52:25.185Z,5.65
2023-02-23T14:54:52.893Z,5.50
2023-02-23T14:57:25.707Z,6.07
2023-02-23T15:00:01.126Z,5.43
2023-02-23T15:02:30.937Z,6.07
2023-02-23T15:04:57.985Z,5.95
2023-02-23T15:07:33.775Z,5.72
2023-02-23T15:10:02.863Z,5.25
2023-02-23T15:12:35.416Z,5.53
2023-02-23T15:15:08.019Z,5.43
2023-02-23T15:17:35.053Z,5.53
2023-02-23T15:20:17.699Z,6.03
2023-02-23T15:22:52.252Z,5.70
2023-02-23T15:25:23.993Z,5.13
2023-02-23T15:27:51.922Z,5.28
2023-02-23T15:30:30.960Z,5.88
2023-02-23T15:33:00.766Z,5.55
2023-02-23T15:35:28.715Z,5.20
2023-02-23T15:38:07.673Z,5.50
2023-02-23T15:40:43.372Z,4.90
2023-02-23T15:43:11.499Z,4.95
2023-02-23T15:45:50.778Z,5.57
2023-02-23T15:48:22.715Z,5.38
2023-02-23T15:50:58.480Z,5.20
2023-02-23T15:53:40.795Z,5.43
2023-02-23T15:56:20.110Z,5.43
2023-02-23T15:58:57.370Z,5.05
2023-02-23T16:01:29.334Z,5.22
2023-02-23T16:04:13.839Z,5.72
2023-02-23T16:07:06.646Z,5.32
2023-02-23T16:09:38.559Z,4.68
2023-02-23T16:12:08.006Z,5.57
2023-02-23T16:15:15.316Z,5.13
2023-02-23T16:17:48.587Z,5.35
2023-02-23T16:20:29.191Z,5.22
2023-02-23T16:22:58.082Z,5.03
2023-02-23T16:25:27.831Z,5.38
2023-02-23T16:28:01.390Z,5.10
2023-02-23T16:30:43.313Z,4.75
2023-02-23T16:33:24.484Z,4.55
2023-02-23T16:36:04.936Z,5.07
2023-02-23T16:38:42.274Z,4.70
2023-02-23T16:41:21.430Z,5.10
2023-02-23T16:43:50.179Z,4.90
2023-02-23T16:46:18.361Z,4.80
2023-02-23T16:48:45.361Z,4.80
2023-02-23T16:51:17.874Z,5.00
2023-02-23T16:53:45.290Z,4.65
2023-02-23T16:56:18.213Z,5.18
2023-02-23T16:58:51.015Z,4.43
2023-02-23T17:01:19.014Z,4.80
2023-02-23T17:04:03.888Z,4.80
2023-02-23T17:06:30.668Z,4.47
2023-02-23T17:08:58.453Z,5.05
2023-02-23T17:11:26.014Z,5.35
2023-02-23T17:13:52.704Z,5.05
2023-02-23T17:16:20.004Z,4.90
2023-02-23T17:18:46.813Z,4.55
2023-02-23T17:21:23.650Z,4.65
2023-02-23T17:23:52.229Z,4.75
2023-02-23T17:26:24.836Z,4.82
2023-02-23T17:28:52.129Z,4.63
2023-02-23T17:31:20.426Z,4.53
2023-02-23T17:33:48.196Z,4.80
2023-02-23T17:36:17.128Z,4.70
2023-02-23T17:38:47.110Z,4.35
2023-02-23T17:41:17.337Z,4.90
2023-02-23T17:43:44.430Z,4.38
2023-02-23T17:46:12.670Z,4.88
2023-02-23T17:48:40.819Z,4.68
2023-02-23T17:51:12.034Z,4.57
2023-02-23T17:53:40.162Z,4.25
2023-02-23T17:56:07.621Z,4.20
2023-02-23T17:58:35.114Z,5.15
2023-02-23T18:01:03.881Z,4.70
2023-02-23T18:03:32.929Z,4.50
2023-02-23T18:06:02.136Z,4.47
2023-02-23T18:08:29.153Z,4.43
2023-02-23T18:10:56.623Z,4.45
2023-02-23T18:13:24.942Z,3.72
2023-02-23T18:15:55.059Z,4.65
2023-02-23T18:18:24.208Z,4.15
2023-02-23T18:20:56.490Z,4.47
2023-02-23T18:23:25.480Z,4.32
2023-02-23T18:25:52.386Z,4.00
2023-02-23T18:28:19.266Z,4.50
2023-02-23T18:30:46.574Z,5.20
2023-02-23T18:33:13.847Z,6.60
2023-02-23T18:35:44.968Z,9.10
2023-02-23T18:38:14.162Z,12.50
2023-02-23T18:40:41.702Z,17.20
2023-02-23T18:43:09.029Z,24.65
2023-02-23T18:45:35.802Z,30.38
2023-02-23T18:48:02.718Z,35.60
2023-02-23T18:50:29.586Z,40.03
2023-02-23T18:52:58.996Z,43.05
2023-02-23T18:55:25.753Z,45.63
2023-02-23T18:57:52.852Z,48.53
2023-02-23T19:00:20.561Z,50.85
2023-02-23T19:02:48.015Z,52.97
2023-02-23T19:05:18.117Z,56.05
2023-02-23T19:07:45.760Z,59.92
2023-02-23T19:10:14.849Z,60.30
2023-02-23T19:12:41.617Z,62.25
2023-02-23T19:15:09.273Z,64.78
2023-02-23T19:17:47.444Z,64.90
2023-02-23T19:20:14.486Z,64.13
2023-02-23T19:22:41.751Z,65.40
2023-02-23T19:25:14.248Z,65.65
2023-02-23T19:27:41.899Z,63.20
2023-02-23T19:30:10.174Z,65.88
2023-02-23T19:32:39.773Z,65.60
2023-02-23T19:35:09.304Z,63.53
2023-02-23T19:40:03.829Z,65.60
2023-02-23T19:42:32.691Z,71.38
2023-02-23T19:44:59.806Z,68.00
2023-02-23T19:47:26.556Z,65.43
2023-02-23T19:49:54.911Z,67.47
2023-02-23T19:52:23.350Z,65.40
2023-02-23T19:54:50.316Z,64.70
2023-02-23T19:57:17.216Z,64.55
2023-02-23T19:59:44.035Z,63.90
2023-02-23T20:02:11.312Z,63.53
2023-02-23T20:04:38.350Z,61.47
2023-02-23T20:07:04.996Z,61.08
2023-02-23T20:09:31.697Z,64.47
2023-02-23T20:11:58.423Z,61.38
2023-02-23T20:14:25.146Z,58.58
2023-02-23T20:16:51.902Z,55.03
2023-02-23T20:19:19.722Z,54.47
2023-02-23T20:21:46.398Z,55.80
2023-02-23T20:24:13.373Z,54.30
2023-02-23T20:26:40.038Z,55.40
2023-02-23T20:29:10.942Z,54.90
2023-02-23T20:31:41.904Z,52.38
2023-02-23T20:34:12.244Z,52.65
2023-02-23T20:36:39.992Z,52.95
2023-02-23T20:39:07.266Z,52.60
2023-02-23T20:41:33.992Z,52.22
2023-02-23T20:44:01.231Z,49.88
2023-02-23T20:46:30.957Z,49.58
2023-02-23T20:48:59.229Z,48.13
2023-02-23T20:51:26.634Z,49.42
2023-02-23T20:53:53.247Z,48.63
2023-02-23T20:56:22.112Z,47.22
2023-02-23T20:58:49.116Z,48.35
2023-02-23T21:01:20.377Z,47.50
2023-02-23T21:03:47.809Z,47.58
2023-02-23T21:06:16.090Z,44.50
2023-02-23T21:08:42.721Z,44.78
2023-02-23T21:11:09.463Z,44.42
2023-02-23T21:13:36.303Z,45.13
2023-02-23T21:16:03.544Z,44.03
2023-02-23T21:18:31.340Z,44.80
2023-02-23T21:21:09.708Z,42.53
2023-02-23T21:23:44.906Z,41.23
2023-02-23T21:26:16.064Z,40.83
2023-02-23T21:28:46.387Z,41.50
2023-02-23T21:31:14.502Z,40.33
2023-02-23T21:33:43.107Z,39.25
2023-02-23T21:36:11.151Z,39.10
2023-02-23T21:38:40.198Z,38.38
2023-02-23T21:41:07.997Z,38.50
2023-02-23T21:43:36.353Z,39.70
2023-02-23T21:46:14.664Z,38.78
2023-02-23T21:48:43.041Z,38.50
2023-02-23T21:51:13.057Z,38.03
2023-02-23T21:53:40.976Z,37.33
2023-02-23T21:56:21.203Z,35.40
2023-02-23T21:58:50.672Z,37.45
2023-02-23T22:03:49.460Z,35.22
2023-02-23T22:06:21.368Z,34.45
2023-02-23T22:08:51.818Z,33.65
2023-02-23T22:11:22.096Z,34.05
2023-02-23T22:13:54.402Z,33.53
2023-02-23T22:16:22.390Z,33.53
2023-02-23T22:18:50.544Z,31.67
2023-02-23T22:21:19.198Z,32.35
2023-02-23T22:23:50.209Z,32.40
2023-02-23T22:26:17.881Z,32.10
2023-02-23T22:28:45.037Z,30.42
2023-02-23T22:31:13.796Z,33.08
2023-02-23T22:33:43.135Z,31.17
2023-02-23T22:36:18.083Z,30.02
2023-02-23T22:38:45.670Z,28.77
2023-02-23T22:41:13.158Z,30.15
2023-02-23T22:43:41.848Z,30.63
2023-02-23T22:46:09.543Z,28.63
2023-02-23T22:48:36.416Z,28.05
2023-02-23T22:51:03.699Z,28.45
2023-02-23T22:53:31.600Z,26.85
2023-02-23T22:55:59.624Z,27.65
2023-02-23T22:58:26.831Z,26.58
2023-02-23T23:01:04.873Z,26.90
2023-02-23T23:03:41.974Z,27.38
2023-02-23T23:06:11.410Z,26.40
2023-02-23T23:08:42.940Z,27.05
2023-02-23T23:11:15.594Z,26.30
2023-02-23T23:13:57.609Z,23.58
2023-02-23T23:16:32.299Z,25.40
2023-02-23T23:19:07.870Z,24.67
2023-02-23T23:21:35.995Z,23.95
2023-02-23T23:24:08.087Z,23.33
2023-02-23T23:26:39.663Z,24.30
2023-02-23T23:29:10.171Z,23.83
2023-02-23T23:31:38.734Z,23.23
2023-02-23T23:34:11.552Z,22.70
2023-02-23T23:36:49.128Z,23.52
2023-02-23T23:39:18.337Z,22.60
2023-02-23T23:41:48.902Z,22.00
2023-02-23T23:44:18.669Z,22.70
2023-02-23T23:46:46.741Z,21.92
2023-02-23T23:49:16.516Z,20.50
2023-02-23T23:51:45.998Z,21.27
2023-02-23T23:56:41.752Z,21.10
2023-02-23T23:59:11.500Z,20.35
